Time;durP1;ratioP1;P1;durP2;ratioP2;P2;SDS_P1;SDS_P2;PMS_P1;PMS_P2;Temp;Humidity;BMP_temperature;BMP_pressure;BME280_temperature;BME280_humidity;BME280_pressure;Samples;Min_cycle;Max_cycle;Signal;HPM_P1;HPM_P2
2022/09/11 00:00:51;;;;;;;1.30;1.30;;;24.40;60.10;;;;;;4997501;28;44016;-76
2022/09/11 00:03:20;;;;;;;1.30;1.30;;;24.50;60.00;;;;;;4988757;28;43934;-74
2022/09/11 00:05:48;;;;;;;1.30;1.30;;;24.50;59.70;;;;;;4987014;28;43501;-74
2022/09/11 00:08:17;;;;;;;1.30;1.30;;;24.60;59.70;;;;;;4996014;28;44125;-75
2022/09/11 00:10:47;;;;;;;1.67;1.57;;;24.50;59.70;;;;;;5004153;28;43476;-75
2022/09/11 00:13:20;;;;;;;1.30;1.30;;;24.40;59.90;;;;;;5002295;28;43621;-75
2022/09/11 00:15:48;;;;;;;1.47;1.47;;;24.20;60.40;;;;;;4993872;28;43442;-76
2022/09/11 00:18:20;;;;;;;1.47;1.47;;;24.10;60.70;;;;;;4974258;28;43415;-76
2022/09/11 00:20:49;;;;;;;1.30;1.30;;;24.00;60.90;;;;;;4987668;28;43490;-76
2022/09/11 00:23:17;;;;;;;1.50;1.50;;;24.00;61.20;;;;;;4996816;28;44013;-75
2022/09/11 00:25:45;;;;;;;1.60;1.60;;;23.80;61.40;;;;;;4981916;28;44717;-76
2022/09/11 00:28:14;;;;;;;1.40;1.40;;;23.70;62.10;;;;;;4988069;28;43383;-76
2022/09/11 00:30:44;;;;;;;1.40;1.40;;;23.70;62.20;;;;;;4974389;28;44003;-76
2022/09/11 00:33:12;;;;;;;1.60;1.60;;;23.70;62.00;;;;;;4993966;28;45020;-74
2022/09/11 00:35:40;;;;;;;1.50;1.50;;;23.70;61.90;;;;;;4990059;28;43457;-76
2022/09/11 00:38:08;;;;;;;1.20;1.20;;;23.70;62.00;;;;;;4988570;28;43543;-74
2022/09/11 00:40:45;;;;;;;1.40;1.40;;;23.60;62.20;;;;;;4972522;28;43872;-76
2022/09/11 00:43:14;;;;;;;1.50;1.50;;;23.50;62.50;;;;;;4989215;28;43856;-77
2022/09/11 00:45:41;;;;;;;1.47;1.47;;;23.50;62.50;;;;;;4999547;28;44015;-76
2022/09/11 00:48:11;;;;;;;1.50;1.50;;;23.50;62.50;;;;;;5000422;28;43481;-76
2022/09/11 00:50:39;;;;;;;1.60;1.60;;;23.40;62.60;;;;;;4999297;28;43493;-76
2022/09/11 00:53:08;;;;;;;1.40;1.40;;;23.40;63.10;;;;;;4971995;28;45648;-76
2022/09/11 00:55:36;;;;;;;1.40;1.40;;;23.30;63.00;;;;;;4980441;28;45063;-76
2022/09/11 00:58:06;;;;;;;1.20;1.20;;;23.30;63.00;;;;;;4989261;28;43425;-76
2022/09/11 01:00:34;;;;;;;1.40;1.40;;;23.30;63.10;;;;;;4974940;28;43518;-75
2022/09/11 01:03:02;;;;;;;1.30;1.30;;;23.20;63.30;;;;;;4991860;28;43763;-76
2022/09/11 01:05:33;;;;;;;1.27;1.27;;;23.20;63.50;;;;;;4989884;28;43416;-75
2022/09/11 01:08:02;;;;;;;1.50;1.50;;;23.30;63.20;;;;;;5001054;28;43469;-76
2022/09/11 01:10:36;;;;;;;1.20;1.20;;;23.40;62.90;;;;;;4981199;28;43496;-75
2022/09/11 01:13:07;;;;;;;1.30;1.30;;;23.60;62.50;;;;;;4991873;28;43945;-76
2022/09/11 01:15:38;;;;;;;1.30;1.30;;;23.60;62.20;;;;;;4993223;28;43459;-74
2022/09/11 01:18:10;;;;;;;1.13;1.13;;;23.60;62.10;;;;;;4990714;28;43342;-74
2022/09/11 01:20:50;;;;;;;1.43;1.43;;;23.60;62.30;;;;;;4992117;28;43401;-74
2022/09/11 01:23:33;;;;;;;1.50;1.50;;;23.50;62.80;;;;;;4986298;28;43854;-76
2022/09/11 01:26:21;;;;;;;1.20;1.20;;;23.40;62.90;;;;;;4971652;28;45146;-76
2022/09/11 01:28:52;;;;;;;1.30;1.30;;;23.40;62.80;;;;;;4989486;28;43490;-76
2022/09/11 01:31:22;;;;;;;1.23;1.23;;;23.30;62.90;;;;;;4974084;28;43506;-75
2022/09/11 01:33:52;;;;;;;1.30;1.30;;;23.20;63.20;;;;;;4992398;28;45772;-75
2022/09/11 01:36:21;;;;;;;1.47;1.47;;;23.20;63.30;;;;;;4973788;28;44881;-77
2022/09/11 01:38:51;;;;;;;1.33;1.33;;;23.20;63.30;;;;;;4992286;28;43493;-76
2022/09/11 01:41:21;;;;;;;1.13;1.13;;;23.20;63.30;;;;;;4979330;28;43556;-74
2022/09/11 01:43:51;;;;;;;1.30;1.30;;;23.10;63.40;;;;;;4996721;28;44014;-75
2022/09/11 01:46:21;;;;;;;1.30;1.30;;;23.10;63.70;;;;;;4999327;28;43435;-75
2022/09/11 01:48:54;;;;;;;1.23;1.23;;;23.20;63.50;;;;;;4972383;28;43497;-76
2022/09/11 01:51:23;;;;;;;1.50;1.50;;;23.30;63.10;;;;;;4981147;28;43702;-73
2022/09/11 01:53:51;;;;;;;1.30;1.30;;;23.50;62.80;;;;;;4996397;28;43976;-75
2022/09/11 01:56:21;;;;;;;1.40;1.40;;;23.50;62.40;;;;;;4969295;28;43573;-76
2022/09/11 01:58:55;;;;;;;1.50;1.50;;;23.50;62.30;;;;;;4974061;28;43482;-76
2022/09/11 02:01:24;;;;;;;1.20;1.20;;;23.50;62.50;;;;;;4970613;28;43565;-74
2022/09/11 02:03:54;;;;;;;1.30;1.30;;;23.40;62.80;;;;;;4990819;28;44081;-77
2022/09/11 02:06:25;;;;;;;1.20;1.20;;;23.30;63.10;;;;;;4981942;28;44726;-74
2022/09/11 02:08:56;;;;;;;1.23;1.23;;;23.30;63.10;;;;;;4979235;28;43613;-73
2022/09/11 02:11:24;;;;;;;1.40;1.40;;;23.20;63.10;;;;;;4970699;28;43829;-74
2022/09/11 02:13:57;;;;;;;1.40;1.40;;;23.20;63.30;;;;;;4991591;28;43931;-76
2022/09/11 02:16:34;;;;;;;1.40;1.40;;;23.20;63.60;;;;;;4994480;28;43857;-75
2022/09/11 02:19:04;;;;;;;1.33;1.33;;;23.10;63.50;;;;;;4978865;28;43613;-75
2022/09/11 02:21:32;;;;;;;1.40;1.40;;;23.10;63.50;;;;;;4995206;28;43472;-73
2022/09/11 02:24:00;;;;;;;1.20;1.20;;;23.10;63.50;;;;;;4976569;28;47410;-76
2022/09/11 02:26:30;;;;;;;1.40;1.40;;;23.10;63.90;;;;;;4993587;28;43432;-75
2022/09/11 02:29:00;;;;;;;1.40;1.40;;;23.10;63.80;;;;;;4992840;28;43864;-74
2022/09/11 02:31:28;;;;;;;1.30;1.30;;;23.20;63.50;;;;;;4970934;28;43506;-77
2022/09/11 02:33:57;;;;;;;1.30;1.30;;;23.30;63.00;;;;;;4974483;28;44050;-76
2022/09/11 02:36:47;;;;;;;1.30;1.30;;;23.50;62.70;;;;;;4980843;28;44989;-75
2022/09/11 02:39:29;;;;;;;1.40;1.40;;;23.50;62.50;;;;;;4974797;28;43361;-76
2022/09/11 02:42:07;;;;;;;1.30;1.30;;;23.50;62.50;;;;;;4973374;28;43407;-76
2022/09/11 02:44:37;;;;;;;1.50;1.50;;;23.40;62.70;;;;;;4970871;28;44092;-75
2022/09/11 02:47:13;;;;;;;1.30;1.30;;;23.30;63.00;;;;;;4979830;28;44897;-75
2022/09/11 02:49:48;;;;;;;1.30;1.30;;;23.30;63.10;;;;;;4978485;28;43418;-75
2022/09/11 02:52:21;;;;;;;1.30;1.30;;;23.20;63.10;;;;;;4980774;28;43445;-74
2022/09/11 02:54:53;;;;;;;1.50;1.40;;;23.20;63.30;;;;;;4988423;28;44055;-76
2022/09/11 02:57:25;;;;;;;1.40;1.40;;;23.10;63.50;;;;;;4978842;28;43895;-75
2022/09/11 02:59:56;;;;;;;1.40;1.40;;;23.10;63.60;;;;;;4978481;28;43466;-77
2022/09/11 03:02:24;;;;;;;1.30;1.30;;;23.10;63.60;;;;;;4972808;28;43388;-76
2022/09/11 03:04:53;;;;;;;1.30;1.30;;;23.10;63.60;;;;;;4975911;28;45775;-74
2022/09/11 03:07:20;;;;;;;1.20;1.20;;;23.10;63.80;;;;;;5001761;28;43384;-77
2022/09/11 03:09:48;;;;;;;1.30;1.30;;;23.00;63.90;;;;;;4971623;28;43979;-76
2022/09/11 03:12:20;;;;;;;1.17;1.17;;;23.10;63.80;;;;;;5002045;28;44051;-75
2022/09/11 03:14:50;;;;;;;1.40;1.40;;;23.00;63.70;;;;;;4978482;28;45844;-75
2022/09/11 03:17:20;;;;;;;1.40;1.40;;;23.00;63.70;;;;;;4995467;28;43940;-76
2022/09/11 03:19:48;;;;;;;1.30;1.30;;;23.00;64.00;;;;;;4989883;28;43985;-74
2022/09/11 03:22:17;;;;;;;1.40;1.40;;;23.00;63.90;;;;;;4975628;28;43976;-75
2022/09/11 03:24:46;;;;;;;1.30;1.30;;;23.10;63.60;;;;;;4980389;28;44290;-75
2022/09/11 03:27:16;;;;;;;1.40;1.40;;;23.30;63.30;;;;;;4975803;28;43429;-76
2022/09/11 03:29:45;;;;;;;1.30;1.30;;;23.40;62.80;;;;;;4998512;28;43412;-77
2022/09/11 03:32:15;;;;;;;1.40;1.40;;;23.50;62.60;;;;;;5005282;28;43829;-77
2022/09/11 03:34:45;;;;;;;1.30;1.30;;;23.40;62.50;;;;;;4983486;28;45299;-75
2022/09/11 03:37:14;;;;;;;1.43;1.40;;;23.30;62.70;;;;;;4992374;28;43447;-75
2022/09/11 03:39:43;;;;;;;1.30;1.30;;;23.30;63.00;;;;;;4987549;28;43915;-75
2022/09/11 03:42:11;;;;;;;1.30;1.30;;;23.20;63.30;;;;;;4971427;28;43476;-75
2022/09/11 03:44:40;;;;;;;1.20;1.20;;;23.20;63.20;;;;;;4990444;28;45683;-77
2022/09/11 03:47:11;;;;;;;1.30;1.30;;;23.20;63.30;;;;;;4973402;28;43493;-76
2022/09/11 03:49:39;;;;;;;1.30;1.30;;;23.10;63.40;;;;;;4979190;28;43467;-74
2022/09/11 03:52:08;;;;;;;1.37;1.37;;;23.10;63.70;;;;;;4997578;28;43480;-76
2022/09/11 03:54:38;;;;;;;1.40;1.40;;;23.10;63.70;;;;;;4977502;28;45952;-74
2022/09/11 03:57:06;;;;;;;1.20;1.20;;;23.10;63.60;;;;;;4987509;28;44030;-77
2022/09/11 03:59:38;;;;;;;1.20;1.20;;;23.10;63.60;;;;;;4968933;28;43876;-76
2022/09/11 04:02:06;;;;;;;1.20;1.20;;;23.00;63.70;;;;;;4998468;28;43743;-75
2022/09/11 04:04:35;;;;;;;1.30;1.30;;;23.00;63.90;;;;;;4980152;28;44377;-75
2022/09/11 04:07:03;;;;;;;1.33;1.33;;;23.10;63.70;;;;;;4974395;28;43368;-75
2022/09/11 04:09:33;;;;;;;1.50;1.40;;;23.30;63.30;;;;;;4971067;28;44029;-75
2022/09/11 04:12:02;;;;;;;1.40;1.40;;;23.40;62.90;;;;;;4981656;28;43956;-75
2022/09/11 04:14:29;;;;;;;1.90;1.73;;;23.50;62.70;;;;;;5000239;28;43853;-75
2022/09/11 04:16:58;;;;;;;1.40;1.40;;;23.40;62.50;;;;;;4977927;28;43449;-76
2022/09/11 04:19:28;;;;;;;1.20;1.20;;;23.40;62.70;;;;;;4972031;28;43401;-75
2022/09/11 04:21:56;;;;;;;1.30;1.30;;;23.30;62.90;;;;;;4973225;28;43998;-76
2022/09/11 04:24:24;;;;;;;1.30;1.30;;;23.30;64.00;;;;;;4980653;28;44095;-73
2022/09/11 04:26:53;;;;;;;1.50;1.50;;;23.20;63.20;;;;;;4991352;28;43765;-76
2022/09/11 04:29:28;;;;;;;1.30;1.30;;;23.20;63.20;;;;;;4975275;28;43406;-74
2022/09/11 04:31:57;;;;;;;1.23;1.23;;;23.10;63.30;;;;;;4970641;28;43525;-76
2022/09/11 04:34:28;;;;;;;1.47;1.47;;;23.10;63.70;;;;;;4970605;28;44161;-77
2022/09/11 04:36:56;;;;;;;1.40;1.40;;;23.10;63.60;;;;;;4978469;28;44710;-76
2022/09/11 04:39:26;;;;;;;1.30;1.30;;;23.10;63.60;;;;;;4986982;28;44051;-75
2022/09/11 04:41:56;;;;;;;1.60;1.60;;;23.10;63.60;;;;;;4975224;28;43607;-75
2022/09/11 04:44:25;;;;;;;1.20;1.20;;;23.00;63.80;;;;;;4977751;28;45997;-74
2022/09/11 04:46:55;;;;;;;1.20;1.20;;;23.00;63.90;;;;;;4978381;28;43473;-76
2022/09/11 04:49:24;;;;;;;1.30;1.30;;;23.10;63.60;;;;;;4976446;28;43419;-75
2022/09/11 04:51:52;;;;;;;1.20;1.20;;;23.30;63.30;;;;;;4973209;28;43573;-76
2022/09/11 04:54:23;;;;;;;1.40;1.40;;;23.40;62.90;;;;;;4974104;28;45721;-73
2022/09/11 04:56:53;;;;;;;1.40;1.40;;;23.40;62.50;;;;;;4980238;28;44635;-75
2022/09/11 04:59:23;;;;;;;1.23;1.23;;;23.40;62.50;;;;;;4973320;28;43435;-74
2022/09/11 05:02:20;;;;;;;1.33;1.33;;;23.30;62.70;;;;;;4977390;28;43543;-75
2022/09/11 05:04:53;;;;;;;1.70;1.40;;;23.20;63.00;;;;;;4974620;28;43913;-74
2022/09/11 05:07:21;;;;;;;1.73;1.73;;;23.20;63.30;;;;;;4969981;28;44343;-76
2022/09/11 05:09:53;;;;;;;1.20;1.20;;;23.20;63.20;;;;;;4974117;28;44040;-76
2022/09/11 05:12:21;;;;;;;1.30;1.30;;;23.10;63.30;;;;;;4975266;28;43606;-74
2022/09/11 05:14:50;;;;;;;1.40;1.40;;;23.10;63.40;;;;;;4973471;28;46467;-76
2022/09/11 05:17:20;;;;;;;1.50;1.50;;;23.10;63.80;;;;;;4981108;28;43554;-77
2022/09/11 05:19:48;;;;;;;1.30;1.30;;;23.10;63.70;;;;;;4970783;28;43401;-75
2022/09/11 05:22:15;;;;;;;1.30;1.30;;;23.00;63.50;;;;;;4992602;28;43452;-77
2022/09/11 05:24:49;;;;;;;1.50;1.50;;;23.00;63.60;;;;;;4979870;28;44093;-75
2022/09/11 05:27:17;;;;;;;1.20;1.20;;;23.00;63.70;;;;;;4991173;28;43508;-76
2022/09/11 05:29:45;;;;;;;1.50;1.50;;;23.00;63.90;;;;;;4973310;28;43439;-75
2022/09/11 05:32:16;;;;;;;1.30;1.30;;;23.10;63.80;;;;;;4976996;28;43518;-75
2022/09/11 05:34:44;;;;;;;1.47;1.47;;;23.20;63.50;;;;;;4969734;28;45426;-77
2022/09/11 05:37:15;;;;;;;1.70;1.63;;;23.30;63.00;;;;;;4969216;28;45193;-77
2022/09/11 05:39:45;;;;;;;1.80;1.80;;;23.40;62.90;;;;;;5000403;28;43425;-75
2022/09/11 05:42:15;;;;;;;1.50;1.50;;;23.30;62.70;;;;;;4980309;28;43507;-75
2022/09/11 05:44:47;;;;;;;1.40;1.40;;;23.30;62.90;;;;;;4977369;28;45936;-74
2022/09/11 05:47:17;;;;;;;1.53;1.53;;;23.20;63.10;;;;;;4978291;28;44630;-74
2022/09/11 05:49:49;;;;;;;1.40;1.40;;;23.10;63.50;;;;;;4979089;28;43908;-76
2022/09/11 05:52:17;;;;;;;1.53;1.53;;;23.10;63.40;;;;;;4978562;28;43459;-77
2022/09/11 05:54:46;;;;;;;1.27;1.27;;;23.10;63.50;;;;;;4978599;28;43863;-76
2022/09/11 05:57:14;;;;;;;1.60;1.60;;;23.00;63.40;;;;;;4971927;28;43396;-75
2022/09/11 05:59:43;;;;;;;1.60;1.60;;;23.00;63.70;;;;;;4984592;28;43420;-75
2022/09/11 06:02:12;;;;;;;1.50;1.50;;;23.00;63.80;;;;;;4978868;28;43641;-74
2022/09/11 06:04:50;;;;;;;1.70;1.70;;;23.10;63.50;;;;;;4992882;28;43626;-76
2022/09/11 06:07:19;;;;;;;1.47;1.47;;;23.20;63.30;;;;;;4992049;28;43872;-77
2022/09/11 06:09:49;;;;;;;1.50;1.50;;;23.20;63.20;;;;;;4985601;28;43351;-76
2022/09/11 06:12:17;;;;;;;1.47;1.47;;;23.20;63.20;;;;;;4990528;28;43611;-75
2022/09/11 06:14:46;;;;;;;1.50;1.50;;;23.10;63.50;;;;;;4974795;28;43963;-75
2022/09/11 06:17:15;;;;;;;1.53;1.53;;;23.10;63.40;;;;;;4975845;28;44848;-76
2022/09/11 06:19:44;;;;;;;1.50;1.50;;;23.10;63.40;;;;;;4977024;28;43413;-77
2022/09/11 06:22:14;;;;;;;1.47;1.47;;;23.10;63.50;;;;;;4979863;28;43422;-74
2022/09/11 06:24:44;;;;;;;1.50;1.50;;;23.00;63.60;;;;;;4977070;28;46021;-75
2022/09/11 06:27:12;;;;;;;1.60;1.60;;;23.00;63.90;;;;;;4998965;28;43483;-74
2022/09/11 06:29:44;;;;;;;1.40;1.40;;;23.00;63.70;;;;;;4971890;28;43444;-76
2022/09/11 06:32:12;;;;;;;1.50;1.50;;;23.00;63.70;;;;;;4978060;28;43588;-75
2022/09/11 06:34:41;;;;;;;1.50;1.50;;;23.00;63.70;;;;;;4973687;28;43996;-75
2022/09/11 06:37:12;;;;;;;1.50;1.50;;;22.90;63.90;;;;;;4995548;28;44075;-74
2022/09/11 06:39:41;;;;;;;1.47;1.47;;;23.00;64.10;;;;;;4978386;28;44046;-74
2022/09/11 06:42:17;;;;;;;1.60;1.60;;;23.10;63.80;;;;;;4988649;28;43450;-74
2022/09/11 06:44:46;;;;;;;1.60;1.60;;;23.20;63.40;;;;;;4972648;28;43899;-77
2022/09/11 06:47:17;;;;;;;1.50;1.50;;;23.30;63.00;;;;;;4977892;28;43460;-74
2022/09/11 06:49:46;;;;;;;1.50;1.50;;;23.30;62.70;;;;;;4972377;28;43509;-74
2022/09/11 06:52:34;;;;;;;1.40;1.40;;;23.30;62.80;;;;;;4999143;28;43410;-74
2022/09/11 06:55:16;;;;;;;1.60;1.60;;;23.20;62.90;;;;;;4978474;28;44835;-76
2022/09/11 06:57:52;;;;;;;1.50;1.50;;;23.10;63.30;;;;;;4975617;28;43527;-75
2022/09/11 07:00:25;;;;;;;1.50;1.50;;;23.10;63.50;;;;;;4978623;28;43370;-75
2022/09/11 07:02:54;;;;;;;1.67;1.67;;;23.10;63.50;;;;;;4994364;28;43502;-75
2022/09/11 07:05:23;;;;;;;1.50;1.50;;;23.00;63.50;;;;;;4971459;28;45438;-76
2022/09/11 07:07:52;;;;;;;1.50;1.50;;;23.00;63.60;;;;;;4975466;28;43513;-75
2022/09/11 07:10:21;;;;;;;1.70;1.60;;;23.00;64.00;;;;;;4981342;28;44037;-74
2022/09/11 07:12:54;;;;;;;1.70;1.70;;;23.00;63.90;;;;;;4988975;28;44594;-74
2022/09/11 07:15:22;;;;;;;1.70;1.70;;;23.10;63.60;;;;;;4977115;28;45342;-73
2022/09/11 07:17:50;;;;;;;1.77;1.77;;;23.20;63.20;;;;;;5002412;28;44045;-76
2022/09/11 07:20:21;;;;;;;1.70;1.70;;;23.30;63.00;;;;;;4970610;28;43872;-75
2022/09/11 07:22:48;;;;;;;1.80;1.80;;;23.30;62.90;;;;;;4978913;28;43535;-77
2022/09/11 07:25:17;;;;;;;1.50;1.50;;;23.20;62.90;;;;;;4984965;28;43817;-74
2022/09/11 07:27:50;;;;;;;1.50;1.50;;;23.20;63.10;;;;;;4996367;28;43319;-74
2022/09/11 07:30:19;;;;;;;1.70;1.70;;;23.10;63.50;;;;;;4971834;28;43390;-76
2022/09/11 07:32:51;;;;;;;1.60;1.60;;;23.10;63.60;;;;;;4979919;28;43589;-76
2022/09/11 07:35:20;;;;;;;1.50;1.50;;;23.10;63.60;;;;;;4973515;28;45023;-76
2022/09/11 07:37:50;;;;;;;1.70;1.70;;;23.00;63.60;;;;;;4976084;28;44463;-76
2022/09/11 07:40:22;;;;;;;1.80;1.80;;;23.00;63.60;;;;;;4982065;28;43435;-74
2022/09/11 07:42:52;;;;;;;1.50;1.50;;;23.00;64.10;;;;;;4991467;28;43603;-76
2022/09/11 07:45:22;;;;;;;1.90;1.90;;;23.00;63.90;;;;;;4977837;28;45563;-76
2022/09/11 07:47:51;;;;;;;1.40;1.40;;;23.00;63.80;;;;;;4971316;28;45047;-76
2022/09/11 07:50:23;;;;;;;1.70;1.70;;;22.90;63.80;;;;;;4996735;28;43971;-74
2022/09/11 07:52:50;;;;;;;1.60;1.60;;;22.90;64.00;;;;;;4976771;28;43581;-75
2022/09/11 07:55:20;;;;;;;1.80;1.80;;;22.90;64.10;;;;;;4981925;28;43930;-77
2022/09/11 07:57:50;;;;;;;1.80;1.80;;;23.00;63.90;;;;;;4970099;28;43784;-75
2022/09/11 08:00:20;;;;;;;2.03;1.93;;;23.20;63.50;;;;;;4980081;28;44342;-74
2022/09/11 08:02:48;;;;;;;3.70;1.60;;;23.30;63.10;;;;;;4991622;28;43409;-75
2022/09/11 08:05:25;;;;;;;1.87;1.80;;;23.40;63.00;;;;;;4980830;28;44058;-73
2022/09/11 08:07:53;;;;;;;1.47;1.47;;;23.30;62.90;;;;;;4977567;28;44677;-75
2022/09/11 08:10:21;;;;;;;1.60;1.50;;;23.20;63.20;;;;;;4974402;28;43460;-77
2022/09/11 08:12:57;;;;;;;1.60;1.60;;;23.10;63.80;;;;;;4976041;28;43449;-74
2022/09/11 08:15:33;;;;;;;1.67;1.67;;;23.10;64.00;;;;;;4973834;28;44059;-76
2022/09/11 08:18:03;;;;;;;14.50;1.83;;;23.10;63.80;;;;;;4979409;28;44412;-75
2022/09/11 08:20:32;;;;;;;1.60;1.50;;;23.10;63.90;;;;;;4977927;28;43733;-76
2022/09/11 08:23:01;;;;;;;1.60;1.50;;;23.00;63.90;;;;;;4978221;28;43426;-76
2022/09/11 08:25:29;;;;;;;1.60;1.60;;;23.00;64.70;;;;;;4982571;28;44045;-75
2022/09/11 08:27:58;;;;;;;1.50;1.50;;;23.00;64.60;;;;;;4976973;28;45011;-74
2022/09/11 08:30:27;;;;;;;1.50;1.50;;;23.20;64.40;;;;;;4977196;28;43379;-74
2022/09/11 08:32:56;;;;;;;1.50;1.50;;;23.30;63.90;;;;;;4973035;28;43600;-76
2022/09/11 08:35:24;;;;;;;1.70;1.70;;;23.40;63.70;;;;;;4975268;28;44034;-75
2022/09/11 08:37:53;;;;;;;2.10;1.83;;;23.40;63.50;;;;;;4993020;28;43508;-73
2022/09/11 08:40:22;;;;;;;1.53;1.50;;;23.30;63.30;;;;;;4978342;28;43462;-75
2022/09/11 08:42:51;;;;;;;1.67;1.67;;;23.20;63.50;;;;;;4970811;28;43485;-76
2022/09/11 08:45:20;;;;;;;1.40;1.40;;;23.10;64.30;;;;;;4974400;28;45774;-76
2022/09/11 08:47:50;;;;;;;1.50;1.50;;;23.10;64.40;;;;;;4980822;28;44689;-76
2022/09/11 08:50:23;;;;;;;1.40;1.40;;;23.10;64.20;;;;;;4987986;28;43438;-76
2022/09/11 08:52:53;;;;;;;1.60;1.60;;;23.10;64.20;;;;;;4974762;28;44575;-75
2022/09/11 08:55:27;;;;;;;1.60;1.50;;;23.00;64.30;;;;;;4969591;28;44061;-75
2022/09/11 08:57:59;;;;;;;1.80;1.70;;;23.00;65.00;;;;;;4973613;28;44715;-75
2022/09/11 09:00:31;;;;;;;1.60;1.60;;;23.00;64.80;;;;;;4970745;28;43475;-76
2022/09/11 09:03:11;;;;;;;1.30;1.30;;;23.00;64.60;;;;;;4975743;28;43530;-75
2022/09/11 09:05:45;;;;;;;1.47;1.47;;;23.00;64.50;;;;;;4973058;28;45022;-75
2022/09/11 09:08:38;;;;;;;1.43;1.43;;;22.90;65.20;;;;;;4975498;28;44614;-76
2022/09/11 09:11:12;;;;;;;1.20;1.20;;;23.00;65.20;;;;;;4975187;28;43525;-75
2022/09/11 09:13:48;;;;;;;1.47;1.47;;;22.90;64.70;;;;;;4980369;28;44118;-75
2022/09/11 09:16:25;;;;;;;1.60;1.50;;;22.90;64.70;;;;;;4979588;28;43918;-74
2022/09/11 09:18:55;;;;;;;1.50;1.50;;;22.90;65.40;;;;;;4976297;28;44846;-75
2022/09/11 09:21:29;;;;;;;1.50;1.50;;;23.00;66.10;;;;;;4980225;28;43411;-75
2022/09/11 09:23:59;;;;;;;1.30;1.30;;;23.10;64.90;;;;;;4997809;28;43390;-74
2022/09/11 09:26:29;;;;;;;1.57;1.57;;;23.30;64.50;;;;;;4974258;28;45534;-75
2022/09/11 09:29:04;;;;;;;1.50;1.50;;;23.40;63.90;;;;;;4978890;28;44447;-75
2022/09/11 09:31:36;;;;;;;1.83;1.83;;;23.50;63.70;;;;;;4972467;28;43411;-74
2022/09/11 09:34:06;;;;;;;1.30;1.30;;;23.50;63.50;;;;;;4985340;28;43477;-74
2022/09/11 09:36:38;;;;;;;1.47;1.37;;;23.40;63.70;;;;;;4976630;28;44004;-75
2022/09/11 09:39:09;;;;;;;2.93;1.60;;;23.30;63.90;;;;;;4979063;28;43397;-77
2022/09/11 09:42:01;;;;;;;1.83;1.70;;;23.20;64.60;;;;;;5000046;28;44084;-74
2022/09/11 09:44:37;;;;;;;1.40;1.40;;;23.20;64.50;;;;;;4977262;28;43707;-75
2022/09/11 09:47:09;;;;;;;1.27;1.27;;;23.10;64.40;;;;;;4988033;28;45661;-75
2022/09/11 09:49:37;;;;;;;1.60;1.60;;;23.10;64.50;;;;;;4997980;28;43979;-75
2022/09/11 09:52:15;;;;;;;2.27;1.60;;;23.00;65.10;;;;;;4994725;28;43837;-75
2022/09/11 09:54:43;;;;;;;1.60;1.60;;;23.00;65.10;;;;;;4991324;28;43469;-77
2022/09/11 09:57:12;;;;;;;1.40;1.40;;;23.00;64.80;;;;;;4978734;28;45487;-73
2022/09/11 09:59:41;;;;;;;1.47;1.40;;;23.00;64.70;;;;;;4996458;28;43454;-74
2022/09/11 10:02:09;;;;;;;1.43;1.43;;;23.00;65.30;;;;;;4996271;28;43415;-74
2022/09/11 10:04:37;;;;;;;1.60;1.60;;;23.00;65.50;;;;;;4990662;28;43296;-74
2022/09/11 10:07:07;;;;;;;1.37;1.37;;;23.10;65.20;;;;;;4992904;28;44244;-75
2022/09/11 10:09:36;;;;;;;1.30;1.30;;;23.20;64.70;;;;;;4999798;28;43471;-75
2022/09/11 10:12:07;;;;;;;1.70;1.70;;;23.40;64.30;;;;;;5002507;28;43494;-74
2022/09/11 10:14:37;;;;;;;1.20;1.20;;;23.50;64.10;;;;;;5000654;28;43517;-74
2022/09/11 10:17:22;;;;;;;1.40;1.40;;;23.40;63.90;;;;;;4989404;28;43811;-74
2022/09/11 10:19:50;;;;;;;1.40;1.40;;;23.40;64.00;;;;;;4999184;28;43477;-74
2022/09/11 10:22:29;;;;;;;1.60;1.50;;;23.30;64.10;;;;;;5001614;28;44096;-75
2022/09/11 10:25:02;;;;;;;1.60;1.60;;;23.20;64.80;;;;;;4995663;28;43403;-73
2022/09/11 10:27:33;;;;;;;1.40;1.40;;;23.20;64.80;;;;;;4973404;28;45261;-74
2022/09/11 10:30:02;;;;;;;1.43;1.43;;;23.10;64.60;;;;;;4978143;28;44434;-74
2022/09/11 10:32:30;;;;;;;1.77;1.77;;;23.10;64.60;;;;;;5001328;28;43425;-73
2022/09/11 10:34:58;;;;;;;1.63;1.63;;;23.10;65.30;;;;;;4999829;28;43444;-74
2022/09/11 10:37:28;;;;;;;1.60;1.50;;;23.10;65.40;;;;;;5003363;28;43839;-75
2022/09/11 10:40:04;;;;;;;1.80;1.80;;;23.20;65.10;;;;;;4993701;28;43441;-74
2022/09/11 10:42:33;;;;;;;1.70;1.60;;;23.20;64.80;;;;;;4978027;28;43467;-75
2022/09/11 10:45:09;;;;;;;1.63;1.53;;;23.20;64.50;;;;;;4981631;28;43643;-75
2022/09/11 10:47:37;;;;;;;1.50;1.50;;;23.20;64.80;;;;;;4996390;28;43859;-74
2022/09/11 10:50:21;;;;;;;1.67;1.57;;;23.20;65.10;;;;;;5001575;28;43392;-75
2022/09/11 10:53:05;;;;;;;1.57;1.57;;;23.20;64.90;;;;;;4996069;28;43495;-74
2022/09/11 10:55:37;;;;;;;1.30;1.30;;;23.10;64.70;;;;;;4998981;28;43513;-73
2022/09/11 10:58:07;;;;;;;1.50;1.50;;;23.10;64.70;;;;;;4998256;28;43859;-75
2022/09/11 11:00:37;;;;;;;1.50;1.50;;;23.10;65.50;;;;;;4989379;28;43734;-76
2022/09/11 11:03:06;;;;;;;1.50;1.50;;;23.10;65.30;;;;;;4996504;28;44076;-76
2022/09/11 11:05:40;;;;;;;1.50;1.50;;;23.10;65.10;;;;;;4996433;28;43461;-75
2022/09/11 11:08:39;;;;;;;1.90;1.87;;;23.00;65.00;;;;;;4971275;28;45412;-74
2022/09/11 11:11:16;;;;;;;1.67;1.67;;;23.00;65.60;;;;;;4977847;28;44841;-76
2022/09/11 11:13:58;;;;;;;1.57;1.57;;;23.10;65.70;;;;;;4995226;28;43501;-73
2022/09/11 11:16:30;;;;;;;1.40;1.40;;;23.20;65.20;;;;;;4972093;28;43979;-76
2022/09/11 11:19:09;;;;;;;1.67;1.67;;;23.30;64.70;;;;;;4999070;28;44016;-75
2022/09/11 11:21:44;;;;;;;1.50;1.50;;;23.40;64.40;;;;;;4989280;28;43476;-76
2022/09/11 11:24:22;;;;;;;1.50;1.50;;;23.40;64.20;;;;;;4994699;28;43498;-74
2022/09/11 11:26:58;;;;;;;1.43;1.43;;;23.40;64.20;;;;;;4989995;28;43939;-76
2022/09/11 11:29:44;;;;;;;1.43;1.40;;;23.30;64.30;;;;;;4988834;28;43709;-77
2022/09/11 11:32:19;;;;;;;1.40;1.40;;;23.20;64.40;;;;;;4991741;28;43423;-75
2022/09/11 11:35:00;;;;;;;1.53;1.50;;;23.20;64.60;;;;;;4992815;28;43360;-76
2022/09/11 11:37:30;;;;;;;1.40;1.40;;;23.20;64.70;;;;;;4998561;28;44048;-75
2022/09/11 11:39:59;;;;;;;1.87;1.60;;;23.10;64.70;;;;;;4993073;28;44329;-75
2022/09/11 11:42:30;;;;;;;1.80;1.70;;;23.10;65.40;;;;;;4983520;28;44729;-75
2022/09/11 11:44:59;;;;;;;1.80;1.70;;;23.10;65.40;;;;;;4998481;28;43850;-76
2022/09/11 11:47:29;;;;;;;1.40;1.40;;;23.10;65.30;;;;;;4987519;28;43475;-77
2022/09/11 11:50:01;;;;;;;2.20;1.57;;;23.00;65.00;;;;;;4996372;28;43912;-77
2022/09/11 11:52:40;;;;;;;2.20;2.00;;;23.00;65.30;;;;;;4976810;28;44214;-77
2022/09/11 11:55:15;;;;;;;1.90;1.73;;;23.00;65.70;;;;;;4989361;28;43376;-75
2022/09/11 11:57:48;;;;;;;1.93;1.70;;;23.10;65.40;;;;;;4995310;28;43728;-76
2022/09/11 12:00:16;;;;;;;1.60;1.60;;;23.00;65.20;;;;;;4993110;28;43954;-77
2022/09/11 12:02:48;;;;;;;1.50;1.50;;;23.00;65.20;;;;;;4971908;28;44421;-77
2022/09/11 12:05:17;;;;;;;1.53;1.53;;;23.00;65.90;;;;;;4988656;28;43381;-76
2022/09/11 12:07:46;;;;;;;1.90;1.80;;;23.00;65.80;;;;;;4970293;28;43624;-76
2022/09/11 12:10:28;;;;;;;3.23;1.70;;;23.20;65.50;;;;;;4991659;28;43969;-76
2022/09/11 12:12:59;;;;;;;1.50;1.40;;;23.30;65.10;;;;;;4994086;28;43479;-78
2022/09/11 12:15:29;;;;;;;1.67;1.67;;;23.50;64.60;;;;;;4994898;28;43405;-75
2022/09/11 12:18:01;;;;;;;1.70;1.60;;;23.50;64.30;;;;;;4995853;28;44056;-77
2022/09/11 12:20:34;;;;;;;1.70;1.60;;;23.50;64.10;;;;;;4992425;28;43861;-75
2022/09/11 12:23:03;;;;;;;1.53;1.53;;;23.40;64.10;;;;;;4992298;28;43478;-73
2022/09/11 12:25:49;;;;;;;1.70;1.60;;;23.30;64.70;;;;;;4994721;28;44143;-77
2022/09/11 12:28:23;;;;;;;1.90;1.90;;;23.30;64.80;;;;;;4991071;28;43345;-74
2022/09/11 12:30:59;;;;;;;1.70;1.60;;;23.20;64.70;;;;;;4998661;28;45712;-76
2022/09/11 12:33:53;;;;;;;1.47;1.47;;;23.20;64.80;;;;;;4998641;28;43497;-77
2022/09/11 12:36:34;;;;;;;1.50;1.50;;;23.10;65.40;;;;;;5004301;28;43459;-75
2022/09/11 12:39:05;;;;;;;1.70;1.60;;;23.10;65.40;;;;;;4975945;28;43465;-73
2022/09/11 12:41:34;;;;;;;1.47;1.47;;;23.10;65.30;;;;;;4997471;28;44128;-77
2022/09/11 12:44:03;;;;;;;1.37;1.37;;;23.10;65.20;;;;;;5003883;28;43516;-77
2022/09/11 12:47:07;;;;;;;1.47;1.47;;;23.10;65.30;;;;;;4996906;28;43424;-75
2022/09/11 12:49:36;;;;;;;1.23;1.23;;;23.10;66.00;;;;;;4999595;28;43714;-77
2022/09/11 12:52:04;;;;;;;1.67;1.57;;;23.10;65.70;;;;;;4974867;28;45325;-76
2022/09/11 12:54:33;;;;;;;1.30;1.30;;;23.10;65.50;;;;;;4992198;28;43388;-74
2022/09/11 12:57:02;;;;;;;1.43;1.43;;;23.00;65.50;;;;;;4991859;28;43520;-76
2022/09/11 12:59:33;;;;;;;1.37;1.30;;;23.00;66.20;;;;;;4991334;28;43596;-76
2022/09/11 13:02:01;;;;;;;1.57;1.57;;;23.10;66.10;;;;;;4993531;28;43604;-76
2022/09/11 13:04:30;;;;;;;1.60;1.50;;;23.20;65.80;;;;;;4979613;28;44970;-75
2022/09/11 13:07:01;;;;;;;1.33;1.33;;;23.30;65.40;;;;;;4979235;28;43443;-75
2022/09/11 13:09:30;;;;;;;1.30;1.30;;;23.50;65.00;;;;;;4976410;28;43554;-75